createdAt,value
2019-01-25T00:00:22.804Z,64.93
2019-01-25T00:02:51.184Z,66.20
2019-01-25T00:05:19.954Z,77.83
2019-01-25T00:07:51.766Z,69.63
2019-01-25T00:10:20.409Z,53.73
2019-01-25T00:12:50.444Z,48.50
2019-01-25T00:15:19.576Z,46.70
2019-01-25T00:17:50.892Z,46.50
2019-01-25T00:20:23.909Z,50.77
2019-01-25T00:22:55.257Z,52.00
2019-01-25T00:25:26.168Z,46.40
2019-01-25T00:27:54.573Z,52.37
2019-01-25T00:30:25.998Z,52.00
2019-01-25T00:33:12.656Z,48.70
2019-01-25T00:35:49.173Z,51.10
2019-01-25T00:38:20.240Z,50.73
2019-01-25T00:40:54.694Z,51.47
2019-01-25T00:43:28.637Z,53.77
2019-01-25T00:46:00.284Z,53.43
2019-01-25T00:48:30.217Z,51.37
2019-01-25T00:51:01.594Z,49.87
2019-01-25T00:53:29.985Z,59.13
2019-01-25T00:56:03.828Z,57.27
2019-01-25T00:58:35.279Z,56.67
2019-01-25T01:01:09.156Z,54.00
2019-01-25T01:03:43.268Z,51.70
2019-01-25T01:06:17.884Z,51.23
2019-01-25T01:08:46.300Z,57.50
2019-01-25T01:11:22.305Z,54.73
2019-01-25T01:13:56.066Z,53.10
2019-01-25T01:16:27.376Z,64.23
2019-01-25T01:18:58.862Z,61.07
2019-01-25T01:21:30.549Z,62.27
2019-01-25T01:24:03.769Z,63.60
2019-01-25T01:26:32.157Z,62.77
2019-01-25T01:29:12.902Z,62.27
2019-01-25T01:31:43.972Z,59.20
2019-01-25T01:34:12.379Z,62.10
2019-01-25T01:36:43.759Z,61.80
2019-01-25T01:39:15.069Z,52.03
2019-01-25T01:41:49.012Z,61.23
2019-01-25T01:44:27.256Z,59.13
2019-01-25T01:46:55.655Z,61.70
2019-01-25T01:49:27.001Z,60.87
2019-01-25T01:51:58.347Z,59.00
2019-01-25T01:54:26.759Z,59.57
2019-01-25T01:56:58.345Z,65.33
2019-01-25T01:59:29.392Z,68.40
2019-01-25T02:02:00.997Z,62.67
2019-01-25T02:04:32.686Z,60.00
2019-01-25T02:07:04.408Z,61.57
2019-01-25T02:09:32.812Z,67.90
2019-01-25T02:12:01.201Z,65.63
2019-01-25T02:14:31.493Z,65.00
2019-01-25T02:17:00.530Z,59.67
2019-01-25T02:19:28.922Z,66.37
2019-01-25T02:21:58.859Z,57.63
2019-01-25T02:24:27.253Z,59.27
2019-01-25T02:26:57.292Z,54.27
2019-01-25T02:29:33.229Z,64.03
2019-01-25T02:32:02.719Z,58.83
2019-01-25T02:34:39.285Z,61.00
2019-01-25T02:37:07.684Z,56.67
2019-01-25T02:39:40.621Z,60.60
2019-01-25T02:42:10.696Z,63.20
2019-01-25T02:44:42.849Z,57.53
2019-01-25T02:47:11.237Z,57.67
2019-01-25T02:49:39.633Z,62.17
2019-01-25T02:52:13.881Z,57.10
2019-01-25T02:54:42.284Z,58.37
2019-01-25T02:57:23.990Z,59.50
2019-01-25T02:59:54.338Z,63.57
2019-01-25T03:02:28.768Z,54.77
2019-01-25T03:05:00.376Z,52.47
2019-01-25T03:07:34.579Z,56.63
2019-01-25T03:10:05.196Z,55.50
2019-01-25T03:12:45.448Z,55.87
2019-01-25T03:15:19.230Z,57.10
2019-01-25T03:17:50.548Z,55.27
2019-01-25T03:20:21.509Z,63.73
2019-01-25T03:22:50.678Z,61.90
2019-01-25T03:25:25.306Z,55.53
2019-01-25T03:28:05.405Z,60.67
2019-01-25T03:30:33.809Z,60.17
2019-01-25T03:33:02.201Z,57.70
2019-01-25T03:35:34.996Z,58.93
2019-01-25T03:38:18.081Z,62.77
2019-01-25T03:40:55.256Z,61.90
2019-01-25T03:43:25.408Z,66.80
2019-01-25T03:45:55.476Z,63.73
2019-01-25T03:48:34.505Z,67.43
2019-01-25T03:51:03.171Z,61.33
2019-01-25T03:53:43.426Z,61.03
2019-01-25T03:56:11.980Z,67.27
2019-01-25T03:58:49.022Z,64.10
2019-01-25T04:01:22.594Z,66.10
2019-01-25T04:03:48.713Z,66.47
2019-01-25T04:06:17.117Z,61.23
2019-01-25T04:08:47.146Z,62.83
2019-01-25T04:11:18.520Z,62.93
2019-01-25T04:13:50.078Z,63.13
2019-01-25T04:16:20.363Z,61.90
2019-01-25T04:18:51.411Z,61.30
2019-01-25T04:21:22.849Z,71.40
2019-01-25T04:23:54.072Z,65.87
2019-01-25T04:26:26.738Z,64.47
2019-01-25T04:29:00.560Z,66.10
2019-01-25T04:31:30.846Z,67.50
2019-01-25T04:33:59.249Z,69.60
2019-01-25T04:36:29.279Z,73.17
2019-01-25T04:38:57.681Z,70.83
2019-01-25T04:41:28.772Z,66.70
2019-01-25T04:43:57.250Z,65.43
2019-01-25T04:46:31.575Z,64.30
2019-01-25T04:49:05.680Z,65.90
2019-01-25T04:51:42.728Z,67.43
2019-01-25T04:54:20.021Z,65.67
2019-01-25T04:56:54.256Z,64.83
2019-01-25T04:59:26.706Z,75.93
2019-01-25T05:01:55.103Z,66.90
2019-01-25T05:04:23.502Z,70.43
2019-01-25T05:06:54.985Z,70.17
2019-01-25T05:09:25.017Z,72.57
2019-01-25T05:11:56.389Z,65.90
2019-01-25T05:14:27.845Z,63.50
2019-01-25T05:16:57.881Z,71.90
2019-01-25T05:19:26.514Z,64.47
2019-01-25T05:22:00.824Z,63.33
2019-01-25T05:24:29.215Z,61.40
2019-01-25T05:26:59.154Z,65.70
2019-01-25T05:29:47.100Z,66.27
2019-01-25T05:32:15.538Z,77.13
2019-01-25T05:34:43.926Z,77.47
2019-01-25T05:37:14.129Z,72.57
2019-01-25T05:39:42.587Z,74.10
2019-01-25T05:42:13.912Z,72.70
2019-01-25T05:44:42.320Z,76.97
2019-01-25T05:47:18.370Z,74.03
2019-01-25T05:49:47.624Z,75.90
2019-01-25T05:52:22.605Z,82.33
2019-01-25T05:55:06.298Z,79.23
2019-01-25T05:57:35.277Z,76.67
2019-01-25T06:00:13.675Z,79.20
2019-01-25T06:02:48.026Z,78.83
2019-01-25T06:05:19.361Z,82.07
2019-01-25T06:07:47.997Z,83.10
2019-01-25T06:10:17.789Z,84.83
2019-01-25T06:12:51.973Z,83.40
2019-01-25T06:15:20.369Z,79.13
2019-01-25T06:17:49.646Z,78.73
2019-01-25T06:20:19.004Z,76.47
2019-01-25T06:22:47.461Z,80.97
2019-01-25T06:25:15.846Z,80.03
2019-01-25T06:27:44.485Z,83.67
2019-01-25T06:30:21.738Z,76.43
2019-01-25T06:32:53.082Z,80.27
2019-01-25T06:35:26.024Z,79.80
2019-01-25T06:38:05.414Z,85.17
2019-01-25T06:40:36.590Z,79.90
2019-01-25T06:43:07.780Z,81.23
2019-01-25T06:45:39.137Z,82.67
2019-01-25T06:48:11.787Z,85.67
2019-01-25T06:50:43.102Z,83.33
2019-01-25T06:53:14.464Z,85.27
2019-01-25T06:55:42.865Z,92.90
2019-01-25T06:58:13.563Z,85.37
2019-01-25T07:00:49.088Z,88.87
2019-01-25T07:03:28.982Z,85.67
2019-01-25T07:06:03.122Z,87.63
2019-01-25T07:08:31.519Z,84.60
2019-01-25T07:11:12.396Z,86.57
2019-01-25T07:13:40.795Z,93.27
2019-01-25T07:16:09.232Z,87.13
2019-01-25T07:18:37.625Z,84.53
2019-01-25T07:21:08.341Z,90.83
2019-01-25T07:23:38.033Z,90.57
2019-01-25T07:26:07.927Z,90.63
2019-01-25T07:28:39.033Z,88.20
2019-01-25T07:31:11.831Z,86.87
2019-01-25T07:33:41.161Z,82.33
2019-01-25T07:36:09.557Z,85.13
2019-01-25T07:38:41.224Z,82.37
2019-01-25T07:41:09.866Z,83.67
2019-01-25T07:43:38.645Z,82.03
2019-01-25T07:46:09.751Z,84.53
2019-01-25T07:48:38.652Z,83.70
2019-01-25T07:51:09.689Z,79.57
2019-01-25T07:53:38.091Z,82.87
2019-01-25T07:56:06.564Z,83.47
2019-01-25T07:58:34.979Z,82.37
2019-01-25T08:01:04.926Z,78.53
2019-01-25T08:03:38.745Z,88.80
2019-01-25T08:06:11.473Z,87.73
2019-01-25T08:08:40.109Z,83.87
2019-01-25T08:11:08.525Z,87.90
2019-01-25T08:13:39.565Z,78.80
2019-01-25T08:16:14.251Z,85.93
2019-01-25T08:18:45.738Z,79.03
2019-01-25T08:21:14.757Z,82.40
2019-01-25T08:23:44.871Z,91.13
2019-01-25T08:26:20.721Z,82.67
2019-01-25T08:28:49.137Z,84.93
2019-01-25T08:31:17.513Z,80.07
2019-01-25T08:33:48.980Z,91.90
2019-01-25T08:36:20.216Z,84.93
2019-01-25T08:38:48.689Z,86.90
2019-01-25T08:41:17.089Z,90.73
2019-01-25T08:43:48.426Z,82.87
2019-01-25T08:46:19.521Z,90.07
2019-01-25T08:48:47.921Z,91.70
2019-01-25T08:51:16.381Z,87.10
2019-01-25T08:53:44.850Z,95.63
2019-01-25T08:56:13.810Z,97.27
2019-01-25T08:58:42.440Z,103.20
2019-01-25T09:01:10.897Z,96.10
2019-01-25T09:03:40.738Z,92.50
2019-01-25T09:06:09.100Z,98.07
2019-01-25T09:08:37.760Z,96.80
2019-01-25T09:11:09.292Z,95.80
2019-01-25T09:13:43.440Z,96.07
2019-01-25T09:16:11.829Z,93.97
2019-01-25T09:18:40.223Z,103.40
2019-01-25T09:21:11.317Z,100.03
2019-01-25T09:23:57.763Z,99.10
2019-01-25T09:26:26.156Z,99.60
2019-01-25T09:28:57.640Z,99.60
2019-01-25T09:31:32.109Z,101.10
2019-01-25T09:34:09.841Z,98.23
2019-01-25T09:36:44.159Z,92.97
2019-01-25T09:39:17.048Z,100.67
2019-01-25T09:41:48.382Z,92.53
2019-01-25T09:44:22.589Z,100.87
2019-01-25T09:46:54.401Z,102.37
2019-01-25T09:49:28.741Z,87.70
2019-01-25T09:51:57.196Z,96.53
2019-01-25T09:54:25.663Z,90.40
2019-01-25T09:56:54.310Z,101.27
2019-01-25T09:59:25.473Z,98.10
2019-01-25T10:01:56.731Z,93.20
2019-01-25T10:04:25.384Z,97.67
2019-01-25T10:06:54.018Z,95.57
2019-01-25T10:09:24.056Z,92.93
2019-01-25T10:11:55.353Z,98.67
2019-01-25T10:14:23.752Z,99.60
2019-01-25T10:16:52.146Z,93.57
2019-01-25T10:19:22.619Z,96.80
2019-01-25T10:21:51.037Z,99.70
2019-01-25T10:24:19.424Z,98.67
2019-01-25T10:26:49.164Z,97.07
2019-01-25T10:29:25.877Z,94.27
2019-01-25T10:31:58.173Z,98.20
2019-01-25T10:34:26.809Z,98.40
2019-01-25T10:36:58.169Z,93.93
2019-01-25T10:39:29.523Z,97.40
2019-01-25T10:41:57.937Z,98.63
2019-01-25T10:44:29.286Z,90.77
2019-01-25T10:47:01.913Z,103.13
2019-01-25T10:49:33.456Z,95.77
2019-01-25T10:52:04.982Z,95.33
2019-01-25T10:54:35.018Z,94.40
2019-01-25T10:57:03.473Z,89.07
2019-01-25T10:59:43.712Z,98.60
2019-01-25T11:02:19.322Z,91.97
2019-01-25T11:04:47.719Z,96.50
2019-01-25T11:07:16.981Z,100.13
2019-01-25T11:09:47.326Z,91.77
2019-01-25T11:12:21.721Z,98.43
2019-01-25T11:14:50.125Z,99.67
2019-01-25T11:17:18.530Z,95.57
2019-01-25T11:19:49.190Z,96.87
2019-01-25T11:22:23.111Z,102.03
2019-01-25T11:24:53.032Z,88.30
2019-01-25T11:27:21.428Z,96.80
2019-01-25T11:29:51.482Z,103.57
2019-01-25T11:32:25.517Z,92.77
2019-01-25T11:34:57.980Z,102.43
2019-01-25T11:37:26.376Z,109.37
2019-01-25T11:39:57.471Z,102.83
2019-01-25T11:42:25.875Z,109.43
2019-01-25T11:44:54.524Z,100.60
2019-01-25T11:47:23.590Z,105.97
2019-01-25T11:50:00.936Z,101.77
2019-01-25T11:52:29.329Z,107.03
2019-01-25T11:54:59.590Z,93.90
2019-01-25T11:57:29.105Z,99.17
2019-01-25T12:00:02.974Z,105.63
2019-01-25T12:02:34.082Z,102.60
2019-01-25T12:05:02.471Z,103.03
2019-01-25T12:07:31.033Z,97.27
2019-01-25T12:09:59.453Z,93.13
2019-01-25T12:12:27.852Z,103.40
2019-01-25T12:14:58.753Z,96.23
2019-01-25T12:17:27.159Z,104.93
2019-01-25T12:19:55.553Z,96.83
2019-01-25T12:22:23.972Z,93.83
2019-01-25T12:24:58.690Z,97.97
2019-01-25T12:27:27.073Z,94.23
2019-01-25T12:29:58.982Z,103.73
2019-01-25T12:32:32.074Z,98.00
2019-01-25T12:35:01.777Z,91.43
2019-01-25T12:37:30.969Z,96.43
2019-01-25T12:39:59.369Z,88.97
2019-01-25T12:42:27.760Z,90.70
2019-01-25T12:44:56.462Z,89.07
2019-01-25T12:47:24.862Z,95.13
2019-01-25T12:49:53.248Z,94.83
2019-01-25T12:52:25.161Z,88.37
2019-01-25T12:54:53.803Z,89.03
2019-01-25T12:57:22.261Z,89.30
2019-01-25T12:59:50.673Z,83.80
2019-01-25T13:02:21.977Z,81.90
2019-01-25T13:04:53.312Z,79.43
2019-01-25T13:07:21.953Z,81.20
2019-01-25T13:09:53.494Z,78.50
2019-01-25T13:12:25.204Z,77.43
2019-01-25T13:14:51.993Z,83.47
2019-01-25T13:17:23.608Z,80.90
2019-01-25T13:19:52.064Z,80.67
2019-01-25T13:22:20.448Z,80.23
2019-01-25T13:24:54.806Z,79.27
2019-01-25T13:27:23.199Z,76.47
2019-01-25T13:29:57.753Z,76.73
2019-01-25T13:32:26.973Z,75.57
2019-01-25T13:34:58.350Z,77.77
2019-01-25T13:37:31.504Z,71.00
2019-01-25T13:40:01.426Z,68.90
2019-01-25T13:42:32.706Z,78.23
2019-01-25T13:45:06.707Z,79.33
2019-01-25T13:47:37.796Z,76.90
2019-01-25T13:50:09.602Z,78.27
2019-01-25T13:52:41.834Z,74.23
2019-01-25T13:55:13.353Z,76.10
2019-01-25T13:57:42.505Z,69.77
2019-01-25T14:00:16.657Z,70.50
2019-01-25T14:02:45.047Z,70.73
2019-01-25T14:05:13.625Z,66.27
2019-01-25T14:07:42.385Z,69.73
2019-01-25T14:10:13.856Z,71.17
2019-01-25T14:13:04.660Z,64.80
2019-01-25T14:15:33.895Z,55.53
2019-01-25T14:18:04.701Z,55.20
2019-01-25T14:20:34.633Z,57.57
2019-01-25T14:23:04.734Z,58.17
2019-01-25T14:25:38.513Z,43.93
2019-01-25T14:28:07.936Z,42.20
2019-01-25T14:30:43.672Z,34.13
2019-01-25T14:33:12.072Z,22.97
2019-01-25T14:35:40.446Z,16.00
2019-01-25T14:38:10.464Z,14.90
2019-01-25T14:40:39.649Z,13.37
2019-01-25T14:43:08.042Z,13.13
2019-01-25T14:45:39.368Z,11.93
2019-01-25T14:48:08.639Z,12.27
2019-01-25T14:50:37.032Z,15.10
2019-01-25T14:53:06.556Z,15.47
2019-01-25T14:55:44.142Z,15.10
2019-01-25T14:58:14.158Z,14.23
2019-01-25T15:00:45.230Z,14.83
2019-01-25T15:03:13.639Z,14.97
2019-01-25T15:05:42.032Z,15.90
2019-01-25T15:08:10.415Z,15.77
2019-01-25T15:10:39.038Z,17.47
2019-01-25T15:13:12.209Z,19.67
2019-01-25T15:15:40.665Z,20.60
2019-01-25T15:18:11.541Z,17.93
2019-01-25T15:20:39.939Z,19.23
2019-01-25T15:23:08.489Z,21.60
2019-01-25T15:25:36.949Z,23.17
2019-01-25T15:28:26.373Z,25.37
2019-01-25T15:30:54.772Z,24.70
2019-01-25T15:33:25.166Z,25.07
2019-01-25T15:35:53.557Z,25.83
2019-01-25T15:38:21.962Z,29.10
2019-01-25T15:40:51.902Z,25.00
2019-01-25T15:43:20.296Z,25.83
2019-01-25T15:45:54.689Z,26.13
2019-01-25T15:48:23.085Z,24.23
2019-01-25T15:50:54.504Z,31.63
2019-01-25T15:53:29.668Z,28.23
2019-01-25T15:56:00.469Z,26.37
2019-01-25T15:58:35.282Z,24.30
2019-01-25T16:01:03.671Z,26.53
2019-01-25T16:03:35.202Z,23.00
2019-01-25T16:06:04.473Z,19.53
2019-01-25T16:08:32.856Z,18.40
2019-01-25T16:11:02.265Z,19.27
2019-01-25T16:13:33.681Z,18.80
2019-01-25T16:16:03.775Z,20.13
2019-01-25T16:18:32.174Z,20.70
2019-01-25T16:21:01.271Z,20.67
2019-01-25T16:23:29.658Z,23.00
2019-01-25T16:25:59.676Z,20.57
2019-01-25T16:28:31.033Z,18.17
2019-01-25T16:31:02.072Z,22.03
2019-01-25T16:33:32.005Z,29.97
2019-01-25T16:36:00.393Z,33.23
2019-01-25T16:38:28.781Z,38.20
2019-01-25T16:41:00.125Z,36.90
2019-01-25T16:43:31.661Z,45.63
2019-01-25T16:46:00.065Z,46.50
2019-01-25T16:48:37.340Z,46.50
2019-01-25T16:51:08.724Z,44.87
2019-01-25T16:53:38.746Z,44.93
2019-01-25T16:56:07.414Z,46.83
2019-01-25T16:58:38.972Z,47.53
2019-01-25T17:01:13.037Z,46.93
2019-01-25T17:03:41.424Z,51.40
2019-01-25T17:06:11.526Z,48.73
2019-01-25T17:08:42.577Z,42.27
2019-01-25T17:11:15.414Z,43.50
2019-01-25T17:13:47.024Z,45.30
2019-01-25T17:16:15.452Z,44.00
2019-01-25T17:18:50.770Z,44.33
2019-01-25T17:21:19.128Z,48.90
2019-01-25T17:23:50.696Z,43.17
2019-01-25T17:26:19.076Z,41.47
2019-01-25T17:28:47.474Z,43.77
2019-01-25T17:31:15.882Z,37.97
2019-01-25T17:33:44.285Z,41.97
2019-01-25T17:36:15.405Z,40.10
2019-01-25T17:38:43.786Z,40.77
2019-01-25T17:41:12.417Z,43.47
2019-01-25T17:43:43.555Z,42.10
2019-01-25T17:46:13.591Z,43.73
2019-01-25T17:48:42.213Z,44.07
2019-01-25T17:51:10.867Z,43.97
2019-01-25T17:53:40.036Z,45.37
2019-01-25T17:56:09.012Z,41.07
2019-01-25T17:58:39.055Z,56.33
2019-01-25T18:01:07.453Z,49.57
2019-01-25T18:03:38.749Z,53.00
2019-01-25T18:06:08.788Z,50.23
2019-01-25T18:08:37.191Z,52.50
2019-01-25T18:11:07.212Z,51.17
2019-01-25T18:13:37.248Z,51.67
2019-01-25T18:16:06.365Z,52.27
2019-01-25T18:18:34.760Z,49.47
2019-01-25T18:21:03.404Z,55.30
2019-01-25T18:23:31.784Z,52.80
2019-01-25T18:26:00.430Z,54.77
2019-01-25T18:28:34.906Z,54.70
2019-01-25T18:31:15.635Z,49.83
2019-01-25T18:33:46.708Z,57.93
2019-01-25T18:36:17.896Z,58.07
2019-01-25T18:38:46.388Z,49.07
2019-01-25T18:41:16.490Z,56.53
2019-01-25T18:43:47.988Z,60.00
2019-01-25T18:46:16.382Z,58.87
2019-01-25T18:48:49.514Z,56.20
2019-01-25T18:51:17.902Z,58.53
2019-01-25T18:53:46.316Z,57.43
2019-01-25T18:56:16.340Z,59.87
2019-01-25T18:58:45.530Z,57.90
2019-01-25T19:01:16.838Z,55.07
2019-01-25T19:03:45.252Z,61.53
2019-01-25T19:06:17.409Z,56.60
2019-01-25T19:08:50.528Z,62.63
2019-01-25T19:11:18.926Z,60.47
2019-01-25T19:13:47.321Z,54.20
2019-01-25T19:16:15.724Z,61.43
2019-01-25T19:18:47.172Z,56.23
2019-01-25T19:21:15.756Z,60.10
2019-01-25T19:23:50.099Z,59.70
2019-01-25T19:26:23.869Z,57.17
2019-01-25T19:28:55.209Z,56.87
2019-01-25T19:31:23.601Z,62.17
2019-01-25T19:33:59.601Z,57.20
2019-01-25T19:36:28.494Z,53.87
2019-01-25T19:38:59.640Z,52.37
2019-01-25T19:41:30.617Z,63.20
2019-01-25T19:44:02.009Z,57.63
2019-01-25T19:46:33.590Z,59.60
2019-01-25T19:49:03.626Z,65.73
2019-01-25T19:51:33.569Z,68.57
2019-01-25T19:54:01.906Z,63.40
2019-01-25T19:56:35.770Z,63.73
2019-01-25T19:59:06.209Z,60.87
2019-01-25T20:01:37.308Z,62.13
2019-01-25T20:04:08.898Z,66.13
2019-01-25T20:06:45.857Z,64.47
2019-01-25T20:09:20.453Z,67.83
2019-01-25T20:11:50.197Z,71.33
2019-01-25T20:14:21.676Z,65.50
2019-01-25T20:16:50.073Z,62.73
2019-01-25T20:19:21.653Z,74.43
2019-01-25T20:21:50.123Z,74.60
2019-01-25T20:24:28.338Z,65.90
2019-01-25T20:27:00.433Z,67.47
2019-01-25T20:29:34.828Z,72.37
2019-01-25T20:32:06.465Z,73.90
2019-01-25T20:34:38.993Z,69.90
2019-01-25T20:37:12.298Z,66.17
2019-01-25T20:39:40.693Z,69.13
2019-01-25T20:42:09.328Z,71.83
2019-01-25T20:44:42.190Z,63.43
2019-01-25T20:47:10.559Z,74.70
2019-01-25T20:49:39.221Z,75.53
2019-01-25T20:52:07.680Z,84.50
2019-01-25T20:54:36.082Z,70.07
2019-01-25T20:57:09.390Z,74.57
2019-01-25T20:59:38.061Z,84.43
2019-01-25T21:02:07.890Z,82.13
2019-01-25T21:04:36.309Z,88.77
2019-01-25T21:07:10.913Z,82.00
2019-01-25T21:09:42.082Z,84.50
2019-01-25T21:12:10.488Z,91.30
2019-01-25T21:14:43.113Z,87.43
2019-01-25T21:17:11.506Z,89.13
2019-01-25T21:19:39.977Z,88.43
2019-01-25T21:22:08.355Z,89.83
2019-01-25T21:24:39.682Z,80.77
2019-01-25T21:27:08.089Z,83.77
2019-01-25T21:29:45.350Z,89.47
2019-01-25T21:32:17.309Z,92.83
2019-01-25T21:34:45.699Z,91.07
2019-01-25T21:37:14.110Z,91.13
2019-01-25T21:39:42.741Z,98.40
2019-01-25T21:42:13.604Z,93.07
2019-01-25T21:44:43.636Z,77.37
2019-01-25T21:47:16.625Z,89.83
2019-01-25T21:49:45.263Z,101.70
2019-01-25T21:52:16.016Z,87.40
2019-01-25T21:54:47.874Z,86.07
2019-01-25T21:57:20.630Z,96.63
2019-01-25T21:59:55.942Z,96.00
2019-01-25T22:02:36.261Z,94.93
2019-01-25T22:05:07.805Z,88.60
2019-01-25T22:07:39.372Z,95.13
2019-01-25T22:10:10.917Z,93.57
2019-01-25T22:12:49.105Z,98.50
2019-01-25T22:15:19.367Z,90.13
2019-01-25T22:17:48.085Z,96.37
2019-01-25T22:20:22.212Z,96.83
2019-01-25T22:22:52.317Z,93.60
2019-01-25T22:25:21.692Z,101.37
2019-01-25T22:27:58.254Z,92.53
2019-01-25T22:30:30.404Z,91.10
2019-01-25T22:33:10.582Z,93.63
2019-01-25T22:35:43.680Z,99.33
2019-01-25T22:38:12.060Z,87.13
2019-01-25T22:40:40.461Z,88.23
2019-01-25T22:43:08.861Z,93.57
2019-01-25T22:45:45.117Z,84.73
2019-01-25T22:48:19.669Z,94.70
2019-01-25T22:50:48.053Z,85.90
2019-01-25T22:53:16.461Z,96.63
2019-01-25T22:55:48.164Z,91.30
2019-01-25T22:58:16.577Z,89.50
2019-01-25T23:00:58.501Z,82.57
2019-01-25T23:03:35.577Z,87.77
2019-01-25T23:06:35.604Z,89.47
2019-01-25T23:09:09.993Z,88.23
2019-01-25T23:11:39.073Z,81.93
2019-01-25T23:14:09.145Z,79.97
2019-01-25T23:16:41.472Z,83.07
2019-01-25T23:19:10.807Z,86.53
2019-01-25T23:21:39.217Z,81.77
2019-01-25T23:24:09.561Z,81.43
2019-01-25T23:26:37.964Z,79.00
2019-01-25T23:29:06.388Z,83.67
2019-01-25T23:31:40.217Z,77.20
2019-01-25T23:34:11.373Z,81.33
2019-01-25T23:36:40.028Z,83.80
2019-01-25T23:39:12.832Z,79.70
2019-01-25T23:41:41.240Z,68.27
2019-01-25T23:44:18.709Z,69.37
2019-01-25T23:46:47.124Z,68.60
2019-01-25T23:49:15.638Z,70.90
2019-01-25T23:51:46.695Z,69.30
2019-01-25T23:54:17.744Z,72.50
2019-01-25T23:56:49.377Z,73.13
2019-01-25T23:59:20.460Z,75.23
